Главная страница
METAR-TAF:

METAR-TAF

Аэропорты :

Рюгге, Норвегия

широта: 59-23N, долгота: 010-47E, высота над уровнем моря: 5 м

Текущие метеонаблюдения

Эта сводка был подготовлена 11 минут назад, в 23:20 UTC
Ветер 6 Узел от южный
Температура 4°C
Влажность 81%
Давление 1007 hPa
Видимость 10 км и более

METAR: ENRY 072320Z AUTO 17006KT 9999NDV NCD 04/01 Q1007

Время: 01:31 (23:31 UTC)

Прогноз

Прогноз действительный с 07-го 18 UTC до 08-го 18 UTC
Ветер 10 Узел от юго-западный
Видимость 10 км и более
небольшая облачность на высоте 3000 фута
изменения
С 07-го 21 UTC до 07-го 24 UTC
Ветер 5 Узел от северный
изменения
С 08-го 13 UTC до 08-го 15 UTC
Ветер 10 Узел от юго-западный

TAF: ENRY 0718/0818 22010KT 9999 FEW030 BECMG 0721/0724 36005KT BECMG 0813/0815 22010KT

Метеонаблюдения и прогнозы для более 4000 аэропортов (сводки METAR и TAF).

Имеющиеся станции представлены на карте желтыми и красными точками.

Чтобы увидеть название станции, наведите на нее мышь.

Затем щелкните, чтобы увидеть метеонаблюдения и метеопрогнозы.

Управление картой: чтобы увеличить масштаб, щелкните зеленые кнопки с черным крестиком; чтобы уменьшить масштаб, щелкните зеленую кнопку с тире; для просмотра соседних карт щелкайте зеленые стрелки.


METAR-TAF: